sensor_id;sensor_type;location;lat;lon;timestamp;pressure;altitude;pressure_sealevel;temperature;humidity
8101;BME280;4093;53.470;9.832;2023-07-31T00:02:04;100744.41;;;18.62;89.71
8101;BME280;4093;53.470;9.832;2023-07-31T00:04:32;100741.66;;;18.31;90.20
8101;BME280;4093;53.470;9.832;2023-07-31T00:07:01;100715.84;;;18.06;90.34
8101;BME280;4093;53.470;9.832;2023-07-31T00:09:30;100747.63;;;18.33;89.77
8101;BME280;4093;53.470;9.832;2023-07-31T00:11:58;100743.09;;;18.36;89.41
8101;BME280;4093;53.470;9.832;2023-07-31T00:14:26;100716.59;;;18.08;89.60
8101;BME280;4093;53.470;9.832;2023-07-31T00:16:54;100735.63;;;18.63;89.04
8101;BME280;4093;53.470;9.832;2023-07-31T00:19:21;100737.97;;;18.52;88.78
8101;BME280;4093;53.470;9.832;2023-07-31T00:21:49;100721.16;;;18.39;88.10
8101;BME280;4093;53.470;9.832;2023-07-31T00:24:18;100729.31;;;18.50;88.14
8101;BME280;4093;53.470;9.832;2023-07-31T00:26:46;100728.47;;;18.32;88.66
8101;BME280;4093;53.470;9.832;2023-07-31T00:29:14;100720.06;;;18.25;89.53
8101;BME280;4093;53.470;9.832;2023-07-31T00:31:41;100726.53;;;18.36;89.68
8101;BME280;4093;53.470;9.832;2023-07-31T00:34:09;100720.97;;;18.07;90.09
8101;BME280;4093;53.470;9.832;2023-07-31T00:36:38;100721.28;;;18.01;90.62
8101;BME280;4093;53.470;9.832;2023-07-31T00:39:06;100714.25;;;17.84;91.22
8101;BME280;4093;53.470;9.832;2023-07-31T00:41:35;100717.44;;;17.91;91.05
8101;BME280;4093;53.470;9.832;2023-07-31T00:44:03;100724.97;;;18.14;90.59
8101;BME280;4093;53.470;9.832;2023-07-31T00:46:31;100721.16;;;18.56;88.92
8101;BME280;4093;53.470;9.832;2023-07-31T00:48:59;100714.22;;;18.20;89.94
8101;BME280;4093;53.470;9.832;2023-07-31T00:51:27;100706.66;;;18.14;90.01
8101;BME280;4093;53.470;9.832;2023-07-31T00:53:55;100712.09;;;18.46;88.69
8101;BME280;4093;53.470;9.832;2023-07-31T00:56:23;100703.59;;;18.06;89.85
8101;BME280;4093;53.470;9.832;2023-07-31T00:58:53;100706.38;;;18.03;90.35
8101;BME280;4093;53.470;9.832;2023-07-31T01:01:20;100702.22;;;18.16;89.76
8101;BME280;4093;53.470;9.832;2023-07-31T01:03:49;100689.25;;;17.78;90.86
8101;BME280;4093;53.470;9.832;2023-07-31T01:06:29;100691.81;;;17.80;91.35
8101;BME280;4093;53.470;9.832;2023-07-31T01:09:01;100686.34;;;17.66;92.67
8101;BME280;4093;53.470;9.832;2023-07-31T01:11:31;100701.44;;;17.97;91.61
8101;BME280;4093;53.470;9.832;2023-07-31T01:14:02;100680.56;;;17.59;92.33
8101;BME280;4093;53.470;9.832;2023-07-31T01:16:30;100698.66;;;18.00;91.71
8101;BME280;4093;53.470;9.832;2023-07-31T01:18:57;100701.28;;;18.35;90.76
8101;BME280;4093;53.470;9.832;2023-07-31T01:21:41;100693.06;;;18.25;90.36
8101;BME280;4093;53.470;9.832;2023-07-31T01:24:20;100686.41;;;17.83;92.79
8101;BME280;4093;53.470;9.832;2023-07-31T01:26:55;100682.19;;;17.80;92.95
8101;BME280;4093;53.470;9.832;2023-07-31T01:29:30;100692.13;;;18.09;92.71
8101;BME280;4093;53.470;9.832;2023-07-31T01:32:01;100686.81;;;18.27;92.59
8101;BME280;4093;53.470;9.832;2023-07-31T01:34:31;100688.03;;;18.72;89.94
8101;BME280;4093;53.470;9.832;2023-07-31T01:36:59;100673.19;;;18.56;89.70
8101;BME280;4093;53.470;9.832;2023-07-31T01:39:27;100661.19;;;18.34;91.31
8101;BME280;4093;53.470;9.832;2023-07-31T01:41:56;100672.44;;;18.69;90.12
8101;BME280;4093;53.470;9.832;2023-07-31T01:44:24;100668.69;;;18.58;90.51
8101;BME280;4093;53.470;9.832;2023-07-31T01:46:51;100669.03;;;18.85;90.02
8101;BME280;4093;53.470;9.832;2023-07-31T01:49:19;100648.25;;;18.31;91.29
8101;BME280;4093;53.470;9.832;2023-07-31T01:51:47;100654.78;;;18.40;91.39
8101;BME280;4093;53.470;9.832;2023-07-31T01:54:14;100661.75;;;18.57;90.63
8101;BME280;4093;53.470;9.832;2023-07-31T01:56:42;100647.09;;;18.19;92.33
8101;BME280;4093;53.470;9.832;2023-07-31T01:59:11;100649.63;;;18.38;92.18
8101;BME280;4093;53.470;9.832;2023-07-31T02:01:39;100644.88;;;18.12;92.96
8101;BME280;4093;53.470;9.832;2023-07-31T02:04:07;100643.47;;;18.04;94.60
8101;BME280;4093;53.470;9.832;2023-07-31T02:06:34;100649.97;;;18.15;93.21
8101;BME280;4093;53.470;9.832;2023-07-31T02:09:03;100644.84;;;18.29;92.69
8101;BME280;4093;53.470;9.832;2023-07-31T02:11:30;100635.84;;;18.17;92.81
8101;BME280;4093;53.470;9.832;2023-07-31T02:13:58;100637.84;;;17.95;93.73
8101;BME280;4093;53.470;9.832;2023-07-31T02:16:27;100643.47;;;18.22;93.53
8101;BME280;4093;53.470;9.832;2023-07-31T02:18:55;100640.31;;;18.15;93.79
8101;BME280;4093;53.470;9.832;2023-07-31T02:21:22;100636.66;;;18.02;94.09
8101;BME280;4093;53.470;9.832;2023-07-31T02:23:50;100629.34;;;17.72;96.18
8101;BME280;4093;53.470;9.832;2023-07-31T02:26:18;100631.09;;;17.91;95.14
8101;BME280;4093;53.470;9.832;2023-07-31T02:28:46;100632.00;;;18.07;93.96
8101;BME280;4093;53.470;9.832;2023-07-31T02:31:13;100630.13;;;18.26;93.29
8101;BME280;4093;53.470;9.832;2023-07-31T02:33:43;100624.31;;;18.04;94.67
8101;BME280;4093;53.470;9.832;2023-07-31T02:36:10;100623.25;;;17.91;95.39
8101;BME280;4093;53.470;9.832;2023-07-31T02:38:38;100624.72;;;17.96;95.01
8101;BME280;4093;53.470;9.832;2023-07-31T02:41:06;100635.88;;;18.00;95.18
8101;BME280;4093;53.470;9.832;2023-07-31T02:43:33;100617.78;;;17.78;95.01
8101;BME280;4093;53.470;9.832;2023-07-31T02:46:01;100629.19;;;18.12;94.94
8101;BME280;4093;53.470;9.832;2023-07-31T02:48:29;100630.00;;;18.12;95.09
8101;BME280;4093;53.470;9.832;2023-07-31T02:50:58;100628.94;;;18.16;95.17
8101;BME280;4093;53.470;9.832;2023-07-31T02:53:26;100625.25;;;18.03;96.03
8101;BME280;4093;53.470;9.832;2023-07-31T02:55:54;100611.63;;;17.96;95.62
8101;BME280;4093;53.470;9.832;2023-07-31T02:58:21;100621.69;;;18.21;94.55
8101;BME280;4093;53.470;9.832;2023-07-31T03:00:49;100619.59;;;18.11;95.20
8101;BME280;4093;53.470;9.832;2023-07-31T03:03:17;100615.31;;;18.10;95.42
8101;BME280;4093;53.470;9.832;2023-07-31T03:05:45;100602.16;;;17.94;95.58
8101;BME280;4093;53.470;9.832;2023-07-31T03:08:14;100600.78;;;17.87;96.36
8101;BME280;4093;53.470;9.832;2023-07-31T03:10:42;100614.91;;;18.35;94.73
8101;BME280;4093;53.470;9.832;2023-07-31T03:13:10;100600.56;;;18.42;92.93
8101;BME280;4093;53.470;9.832;2023-07-31T03:15:37;100602.09;;;18.79;92.49
8101;BME280;4093;53.470;9.832;2023-07-31T03:18:05;100593.16;;;18.50;93.59
8101;BME280;4093;53.470;9.832;2023-07-31T03:20:33;100594.38;;;18.27;95.05
8101;BME280;4093;53.470;9.832;2023-07-31T03:23:00;100591.31;;;18.52;93.24
8101;BME280;4093;53.470;9.832;2023-07-31T03:25:30;100584.13;;;18.56;92.77
8101;BME280;4093;53.470;9.832;2023-07-31T03:27:57;100577.63;;;17.96;95.96
8101;BME280;4093;53.470;9.832;2023-07-31T03:30:25;100587.78;;;18.36;94.42
8101;BME280;4093;53.470;9.832;2023-07-31T03:32:53;100579.59;;;18.42;94.19
8101;BME280;4093;53.470;9.832;2023-07-31T03:35:21;100589.31;;;18.73;92.85
8101;BME280;4093;53.470;9.832;2023-07-31T03:37:48;100586.91;;;18.53;93.06
8101;BME280;4093;53.470;9.832;2023-07-31T03:40:16;100577.41;;;17.84;97.60
8101;BME280;4093;53.470;9.832;2023-07-31T03:42:45;100582.75;;;18.15;95.24
8101;BME280;4093;53.470;9.832;2023-07-31T03:45:13;100583.97;;;18.25;95.54
8101;BME280;4093;53.470;9.832;2023-07-31T03:47:41;100592.66;;;18.26;96.00
8101;BME280;4093;53.470;9.832;2023-07-31T03:50:09;100593.81;;;18.54;94.08
8101;BME280;4093;53.470;9.832;2023-07-31T03:52:37;100586.94;;;18.35;94.59
8101;BME280;4093;53.470;9.832;2023-07-31T03:55:05;100582.69;;;18.50;94.13
8101;BME280;4093;53.470;9.832;2023-07-31T03:57:33;100592.72;;;18.58;93.77
8101;BME280;4093;53.470;9.832;2023-07-31T04:00:02;100587.09;;;18.65;93.73
8101;BME280;4093;53.470;9.832;2023-07-31T04:02:30;100589.16;;;18.43;95.38
8101;BME280;4093;53.470;9.832;2023-07-31T04:04:57;100604.38;;;19.01;91.98
8101;BME280;4093;53.470;9.832;2023-07-31T04:07:25;100608.53;;;19.05;92.17
8101;BME280;4093;53.470;9.832;2023-07-31T04:09:53;100607.84;;;19.17;91.68
8101;BME280;4093;53.470;9.832;2023-07-31T04:12:21;100596.19;;;19.23;90.66
8101;BME280;4093;53.470;9.832;2023-07-31T04:14:48;100597.19;;;19.21;89.98
8101;BME280;4093;53.470;9.832;2023-07-31T04:17:18;100590.88;;;19.25;89.94
8101;BME280;4093;53.470;9.832;2023-07-31T04:19:46;100588.78;;;19.46;89.35
8101;BME280;4093;53.470;9.832;2023-07-31T04:22:14;100574.00;;;18.65;92.59
8101;BME280;4093;53.470;9.832;2023-07-31T04:24:41;100583.19;;;18.57;94.09
8101;BME280;4093;53.470;9.832;2023-07-31T04:27:09;100568.56;;;18.19;95.58
8101;BME280;4093;53.470;9.832;2023-07-31T04:29:37;100581.41;;;18.75;93.62
8101;BME280;4093;53.470;9.832;2023-07-31T04:32:06;100571.88;;;18.56;94.13
8101;BME280;4093;53.470;9.832;2023-07-31T04:34:35;100572.38;;;18.47;94.93
8101;BME280;4093;53.470;9.832;2023-07-31T04:37:03;100574.22;;;18.78;93.94
8101;BME280;4093;53.470;9.832;2023-07-31T04:39:31;100564.97;;;18.55;95.24
8101;BME280;4093;53.470;9.832;2023-07-31T04:41:59;100556.50;;;18.50;94.37
8101;BME280;4093;53.470;9.832;2023-07-31T04:44:27;100558.72;;;18.73;94.06
8101;BME280;4093;53.470;9.832;2023-07-31T04:46:54;100539.25;;;18.46;95.23
8101;BME280;4093;53.470;9.832;2023-07-31T04:49:22;100543.81;;;18.58;95.52
8101;BME280;4093;53.470;9.832;2023-07-31T04:51:51;100533.72;;;18.35;96.01
8101;BME280;4093;53.470;9.832;2023-07-31T04:54:19;100529.25;;;18.21;97.43
8101;BME280;4093;53.470;9.832;2023-07-31T04:56:46;100538.31;;;18.47;96.14
8101;BME280;4093;53.470;9.832;2023-07-31T04:59:14;100523.47;;;18.14;97.54
8101;BME280;4093;53.470;9.832;2023-07-31T05:01:42;100522.72;;;17.95;98.20
8101;BME280;4093;53.470;9.832;2023-07-31T05:04:12;100526.34;;;17.92;98.98
8101;BME280;4093;53.470;9.832;2023-07-31T05:06:40;100537.38;;;17.82;100.00
8101;BME280;4093;53.470;9.832;2023-07-31T05:09:09;100539.13;;;17.98;98.89
8101;BME280;4093;53.470;9.832;2023-07-31T05:11:37;100527.91;;;17.96;98.65
8101;BME280;4093;53.470;9.832;2023-07-31T05:14:06;100538.72;;;18.06;98.25
8101;BME280;4093;53.470;9.832;2023-07-31T05:16:34;100525.66;;;17.54;100.00
8101;BME280;4093;53.470;9.832;2023-07-31T05:19:02;100556.19;;;18.39;97.61
8101;BME280;4093;53.470;9.832;2023-07-31T05:21:30;100543.72;;;18.11;98.27
8101;BME280;4093;53.470;9.832;2023-07-31T05:23:57;100546.81;;;18.35;97.26
8101;BME280;4093;53.470;9.832;2023-07-31T05:26:26;100567.09;;;18.80;95.22
8101;BME280;4093;53.470;9.832;2023-07-31T05:28:54;100564.41;;;19.13;93.76
8101;BME280;4093;53.470;9.832;2023-07-31T05:31:23;100560.25;;;19.09;92.35
8101;BME280;4093;53.470;9.832;2023-07-31T05:33:57;100557.63;;;19.25;92.45
8101;BME280;4093;53.470;9.832;2023-07-31T05:36:25;100555.94;;;19.08;92.32
8101;BME280;4093;53.470;9.832;2023-07-31T05:38:53;100552.31;;;19.11;93.10
8101;BME280;4093;53.470;9.832;2023-07-31T05:41:21;100555.44;;;19.02;93.27
8101;BME280;4093;53.470;9.832;2023-07-31T05:43:50;100556.66;;;19.42;92.39
8101;BME280;4093;53.470;9.832;2023-07-31T05:46:18;100546.78;;;19.31;92.72
8101;BME280;4093;53.470;9.832;2023-07-31T05:48:46;100536.72;;;19.24;92.88
8101;BME280;4093;53.470;9.832;2023-07-31T05:51:13;100534.28;;;19.21;92.59
8101;BME280;4093;53.470;9.832;2023-07-31T05:53:41;100528.97;;;19.06;93.03
8101;BME280;4093;53.470;9.832;2023-07-31T05:56:10;100522.31;;;18.85;94.68
8101;BME280;4093;53.470;9.832;2023-07-31T05:58:37;100513.44;;;18.87;94.67
8101;BME280;4093;53.470;9.832;2023-07-31T06:01:06;100520.50;;;18.69;96.35
8101;BME280;4093;53.470;9.832;2023-07-31T06:03:34;100519.19;;;18.78;95.99
8101;BME280;4093;53.470;9.832;2023-07-31T06:06:02;100517.28;;;18.64;96.51
8101;BME280;4093;53.470;9.832;2023-07-31T06:08:30;100524.00;;;18.86;95.68
8101;BME280;4093;53.470;9.832;2023-07-31T06:10:58;100504.31;;;18.30;97.73
8101;BME280;4093;53.470;9.832;2023-07-31T06:13:25;100524.16;;;18.99;95.69
8101;BME280;4093;53.470;9.832;2023-07-31T06:15:53;100518.19;;;18.81;95.51
8101;BME280;4093;53.470;9.832;2023-07-31T06:18:22;100525.94;;;18.98;95.34
8101;BME280;4093;53.470;9.832;2023-07-31T06:20:50;100520.81;;;19.27;94.77
8101;BME280;4093;53.470;9.832;2023-07-31T06:23:20;100514.00;;;19.08;94.05
8101;BME280;4093;53.470;9.832;2023-07-31T06:25:48;100523.06;;;19.18;94.83
8101;BME280;4093;53.470;9.832;2023-07-31T06:28:15;100527.97;;;19.39;93.71
8101;BME280;4093;53.470;9.832;2023-07-31T06:30:43;100526.66;;;19.32;93.82
8101;BME280;4093;53.470;9.832;2023-07-31T06:33:11;100514.13;;;19.37;93.45
8101;BME280;4093;53.470;9.832;2023-07-31T06:35:40;100522.44;;;19.59;92.65
8101;BME280;4093;53.470;9.832;2023-07-31T06:38:08;100506.75;;;19.44;93.07
8101;BME280;4093;53.470;9.832;2023-07-31T06:40:36;100509.22;;;19.61;92.84
8101;BME280;4093;53.470;9.832;2023-07-31T06:43:03;100511.97;;;19.74;92.52
8101;BME280;4093;53.470;9.832;2023-07-31T06:45:35;100512.28;;;19.69;92.53
8101;BME280;4093;53.470;9.832;2023-07-31T06:48:03;100515.56;;;19.73;92.24
8101;BME280;4093;53.470;9.832;2023-07-31T06:50:31;100500.84;;;19.40;93.08
8101;BME280;4093;53.470;9.832;2023-07-31T06:53:00;100509.69;;;19.53;93.44
8101;BME280;4093;53.470;9.832;2023-07-31T06:55:29;100512.09;;;19.72;92.68
8101;BME280;4093;53.470;9.832;2023-07-31T06:57:56;100511.25;;;19.72;92.19
8101;BME280;4093;53.470;9.832;2023-07-31T07:00:24;100520.28;;;19.96;91.24
8101;BME280;4093;53.470;9.832;2023-07-31T07:02:52;100512.94;;;19.73;91.85
8101;BME280;4093;53.470;9.832;2023-07-31T07:05:20;100517.53;;;19.69;92.32
8101;BME280;4093;53.470;9.832;2023-07-31T07:07:49;100515.56;;;19.73;92.70
8101;BME280;4093;53.470;9.832;2023-07-31T07:10:18;100500.94;;;19.69;92.38
8101;BME280;4093;53.470;9.832;2023-07-31T07:12:46;100511.81;;;19.77;91.72
8101;BME280;4093;53.470;9.832;2023-07-31T07:15:14;100513.72;;;20.18;91.00
8101;BME280;4093;53.470;9.832;2023-07-31T07:17:42;100489.31;;;19.42;93.32
8101;BME280;4093;53.470;9.832;2023-07-31T07:20:10;100506.28;;;19.81;92.75
8101;BME280;4093;53.470;9.832;2023-07-31T07:22:38;100509.38;;;20.02;91.62
8101;BME280;4093;53.470;9.832;2023-07-31T07:25:06;100503.59;;;20.26;90.64
8101;BME280;4093;53.470;9.832;2023-07-31T07:27:35;100492.50;;;20.21;90.75
8101;BME280;4093;53.470;9.832;2023-07-31T07:30:04;100480.13;;;19.80;91.88
8101;BME280;4093;53.470;9.832;2023-07-31T07:32:33;100498.53;;;20.23;91.31
8101;BME280;4093;53.470;9.832;2023-07-31T07:35:01;100496.34;;;20.29;91.07
8101;BME280;4093;53.470;9.832;2023-07-31T07:37:28;100495.13;;;20.21;90.88
8101;BME280;4093;53.470;9.832;2023-07-31T07:39:58;100484.19;;;20.00;92.61
8101;BME280;4093;53.470;9.832;2023-07-31T07:42:26;100495.50;;;20.72;90.67
8101;BME280;4093;53.470;9.832;2023-07-31T07:44:55;100482.38;;;20.43;90.70
8101;BME280;4093;53.470;9.832;2023-07-31T07:47:22;100483.16;;;20.31;91.37
8101;BME280;4093;53.470;9.832;2023-07-31T07:49:53;100493.97;;;20.68;90.32
8101;BME280;4093;53.470;9.832;2023-07-31T07:52:20;100491.47;;;20.93;89.85
8101;BME280;4093;53.470;9.832;2023-07-31T07:54:48;100473.00;;;20.53;91.07
8101;BME280;4093;53.470;9.832;2023-07-31T07:57:16;100464.38;;;20.23;91.99
8101;BME280;4093;53.470;9.832;2023-07-31T07:59:45;100477.50;;;20.37;93.10
8101;BME280;4093;53.470;9.832;2023-07-31T08:02:14;100474.28;;;20.61;92.34
8101;BME280;4093;53.470;9.832;2023-07-31T08:04:41;100475.50;;;20.69;91.19
8101;BME280;4093;53.470;9.832;2023-07-31T08:07:10;100468.97;;;21.02;89.59
8101;BME280;4093;53.470;9.832;2023-07-31T08:09:38;100452.41;;;21.27;88.35
8101;BME280;4093;53.470;9.832;2023-07-31T08:12:07;100472.63;;;21.26;88.88
8101;BME280;4093;53.470;9.832;2023-07-31T08:14:34;100477.84;;;21.41;87.90
8101;BME280;4093;53.470;9.832;2023-07-31T08:17:03;100462.19;;;21.12;88.69
8101;BME280;4093;53.470;9.832;2023-07-31T08:19:32;100451.75;;;21.11;87.62
8101;BME280;4093;53.470;9.832;2023-07-31T08:22:00;100450.72;;;21.13;88.93
8101;BME280;4093;53.470;9.832;2023-07-31T08:24:28;100446.28;;;20.74;91.29
8101;BME280;4093;53.470;9.832;2023-07-31T08:26:56;100445.84;;;20.94;89.67
8101;BME280;4093;53.470;9.832;2023-07-31T08:29:24;100444.44;;;21.16;88.98
8101;BME280;4093;53.470;9.832;2023-07-31T08:31:52;100440.63;;;21.20;88.87
8101;BME280;4093;53.470;9.832;2023-07-31T08:34:20;100432.41;;;21.24;88.52
8101;BME280;4093;53.470;9.832;2023-07-31T08:36:49;100433.97;;;21.67;88.17
8101;BME280;4093;53.470;9.832;2023-07-31T08:39:16;100424.28;;;21.55;86.25
8101;BME280;4093;53.470;9.832;2023-07-31T08:41:44;100426.50;;;21.61;86.22
8101;BME280;4093;53.470;9.832;2023-07-31T08:44:13;100423.63;;;21.89;86.17
8101;BME280;4093;53.470;9.832;2023-07-31T08:46:43;100432.03;;;22.20;85.19
8101;BME280;4093;53.470;9.832;2023-07-31T08:49:11;100417.63;;;22.00;84.14
8101;BME280;4093;53.470;9.832;2023-07-31T08:51:41;100413.03;;;22.15;84.72
8101;BME280;4093;53.470;9.832;2023-07-31T08:54:10;100408.66;;;21.90;85.85
8101;BME280;4093;53.470;9.832;2023-07-31T08:56:39;100406.66;;;22.06;85.13
8101;BME280;4093;53.470;9.832;2023-07-31T08:59:08;100402.75;;;21.99;85.26
8101;BME280;4093;53.470;9.832;2023-07-31T09:01:41;100395.22;;;21.43;88.48
8101;BME280;4093;53.470;9.832;2023-07-31T09:04:12;100406.41;;;21.47;88.56
8101;BME280;4093;53.470;9.832;2023-07-31T09:06:40;100409.50;;;21.90;86.87
8101;BME280;4093;53.470;9.832;2023-07-31T09:09:10;100408.03;;;21.99;85.66
8101;BME280;4093;53.470;9.832;2023-07-31T09:11:38;100407.16;;;22.11;86.05
8101;BME280;4093;53.470;9.832;2023-07-31T09:14:07;100391.59;;;21.95;86.78
8101;BME280;4093;53.470;9.832;2023-07-31T09:16:52;100393.94;;;21.87;86.45
8101;BME280;4093;53.470;9.832;2023-07-31T09:19:27;100380.69;;;21.76;86.91
8101;BME280;4093;53.470;9.832;2023-07-31T09:21:55;100388.03;;;21.84;85.29
8101;BME280;4093;53.470;9.832;2023-07-31T09:24:28;100386.91;;;22.12;85.12
8101;BME280;4093;53.470;9.832;2023-07-31T09:26:58;100380.19;;;22.08;85.66
8101;BME280;4093;53.470;9.832;2023-07-31T09:29:26;100366.09;;;21.59;86.58
8101;BME280;4093;53.470;9.832;2023-07-31T09:31:55;100370.81;;;21.41;88.21
8101;BME280;4093;53.470;9.832;2023-07-31T09:34:29;100362.19;;;21.39;88.76
8101;BME280;4093;53.470;9.832;2023-07-31T09:36:59;100363.53;;;21.19;89.02
8101;BME280;4093;53.470;9.832;2023-07-31T09:39:30;100363.41;;;21.21;88.43
8101;BME280;4093;53.470;9.832;2023-07-31T09:41:58;100362.59;;;21.46;87.30
8101;BME280;4093;53.470;9.832;2023-07-31T09:44:43;100362.38;;;21.23;88.37
8101;BME280;4093;53.470;9.832;2023-07-31T09:47:21;100354.19;;;21.28;88.86
8101;BME280;4093;53.470;9.832;2023-07-31T09:49:51;100358.06;;;21.61;87.46
8101;BME280;4093;53.470;9.832;2023-07-31T09:52:19;100362.56;;;21.84;87.41
8101;BME280;4093;53.470;9.832;2023-07-31T09:54:48;100347.00;;;21.68;87.39
8101;BME280;4093;53.470;9.832;2023-07-31T09:57:16;100355.38;;;21.86;86.81
8101;BME280;4093;53.470;9.832;2023-07-31T09:59:47;100340.34;;;21.88;86.02
8101;BME280;4093;53.470;9.832;2023-07-31T10:02:21;100337.28;;;21.94;85.80
8101;BME280;4093;53.470;9.832;2023-07-31T10:04:50;100337.75;;;21.63;86.19
8101;BME280;4093;53.470;9.832;2023-07-31T10:07:18;100333.97;;;21.67;87.29
8101;BME280;4093;53.470;9.832;2023-07-31T10:09:49;100341.03;;;21.90;86.62
8101;BME280;4093;53.470;9.832;2023-07-31T10:12:19;100341.13;;;22.02;87.02
8101;BME280;4093;53.470;9.832;2023-07-31T10:14:47;100340.34;;;21.88;86.87
8101;BME280;4093;53.470;9.832;2023-07-31T10:17:15;100335.34;;;21.97;86.08
8101;BME280;4093;53.470;9.832;2023-07-31T10:19:44;100320.41;;;21.47;87.98
8101;BME280;4093;53.470;9.832;2023-07-31T10:22:13;100327.28;;;21.37;88.50
8101;BME280;4093;53.470;9.832;2023-07-31T10:24:42;100321.16;;;21.37;88.56
8101;BME280;4093;53.470;9.832;2023-07-31T10:27:11;100332.06;;;21.18;89.64
8101;BME280;4093;53.470;9.832;2023-07-31T10:29:40;100324.06;;;21.32;89.37
8101;BME280;4093;53.470;9.832;2023-07-31T10:32:09;100318.81;;;21.32;89.73
8101;BME280;4093;53.470;9.832;2023-07-31T10:34:39;100328.59;;;21.56;89.50
8101;BME280;4093;53.470;9.832;2023-07-31T10:37:20;100322.72;;;21.39;89.29
8101;BME280;4093;53.470;9.832;2023-07-31T10:39:56;100316.09;;;21.46;89.84
8101;BME280;4093;53.470;9.832;2023-07-31T10:42:30;100310.28;;;21.67;89.61
8101;BME280;4093;53.470;9.832;2023-07-31T10:44:59;100315.44;;;21.30;91.92
8101;BME280;4093;53.470;9.832;2023-07-31T10:47:27;100314.78;;;21.65;90.78
8101;BME280;4093;53.470;9.832;2023-07-31T10:50:17;100310.19;;;21.17;91.96
8101;BME280;4093;53.470;9.832;2023-07-31T10:52:47;100305.13;;;21.14;93.55
8101;BME280;4093;53.470;9.832;2023-07-31T10:55:24;100312.81;;;21.30;92.99
8101;BME280;4093;53.470;9.832;2023-07-31T10:57:54;100314.28;;;21.60;92.10
8101;BME280;4093;53.470;9.832;2023-07-31T11:00:26;100312.16;;;21.65;91.82
8101;BME280;4093;53.470;9.832;2023-07-31T11:02:58;100307.03;;;21.25;93.67
8101;BME280;4093;53.470;9.832;2023-07-31T11:05:55;100301.38;;;21.44;92.57
8101;BME280;4093;53.470;9.832;2023-07-31T11:08:28;100313.22;;;21.75;92.87
8101;BME280;4093;53.470;9.832;2023-07-31T11:11:07;100296.38;;;21.65;91.87
8101;BME280;4093;53.470;9.832;2023-07-31T11:13:42;100277.38;;;20.97;95.00
8101;BME280;4093;53.470;9.832;2023-07-31T11:16:11;100301.78;;;21.25;93.30
8101;BME280;4093;53.470;9.832;2023-07-31T11:18:40;100292.94;;;21.00;95.02
8101;BME280;4093;53.470;9.832;2023-07-31T11:21:08;100305.22;;;21.64;92.32
8101;BME280;4093;53.470;9.832;2023-07-31T11:23:39;100290.31;;;21.26;92.63
8101;BME280;4093;53.470;9.832;2023-07-31T11:26:07;100297.19;;;21.65;91.69
8101;BME280;4093;53.470;9.832;2023-07-31T11:28:37;100301.84;;;21.62;91.72
8101;BME280;4093;53.470;9.832;2023-07-31T11:31:09;100300.06;;;21.75;90.94
8101;BME280;4093;53.470;9.832;2023-07-31T11:33:38;100282.00;;;21.32;92.21
8101;BME280;4093;53.470;9.832;2023-07-31T11:36:06;100295.69;;;21.50;92.72
8101;BME280;4093;53.470;9.832;2023-07-31T11:38:34;100294.19;;;21.46;93.07
8101;BME280;4093;53.470;9.832;2023-07-31T11:41:03;100267.88;;;21.46;92.04
8101;BME280;4093;53.470;9.832;2023-07-31T11:43:31;100291.44;;;21.60;92.36
8101;BME280;4093;53.470;9.832;2023-07-31T11:46:02;100288.25;;;21.68;91.51
8101;BME280;4093;53.470;9.832;2023-07-31T11:48:34;100282.06;;;21.69;90.81
8101;BME280;4093;53.470;9.832;2023-07-31T11:51:05;100282.78;;;21.71;92.27
8101;BME280;4093;53.470;9.832;2023-07-31T11:53:36;100274.53;;;21.26;93.76
8101;BME280;4093;53.470;9.832;2023-07-31T11:56:06;100266.03;;;21.35;93.69
8101;BME280;4093;53.470;9.832;2023-07-31T11:58:35;100290.34;;;21.76;91.72
8101;BME280;4093;53.470;9.832;2023-07-31T12:01:04;100286.19;;;21.60;92.09
8101;BME280;4093;53.470;9.832;2023-07-31T12:03:34;100283.00;;;21.68;91.93
8101;BME280;4093;53.470;9.832;2023-07-31T12:06:02;100283.66;;;21.33;94.09
8101;BME280;4093;53.470;9.832;2023-07-31T12:08:30;100287.13;;;21.59;93.19
8101;BME280;4093;53.470;9.832;2023-07-31T12:11:03;100286.59;;;21.67;92.51
8101;BME280;4093;53.470;9.832;2023-07-31T12:13:32;100275.06;;;21.44;93.17
8101;BME280;4093;53.470;9.832;2023-07-31T12:16:01;100279.44;;;21.69;92.60
8101;BME280;4093;53.470;9.832;2023-07-31T12:18:35;100278.28;;;21.60;92.72
8101;BME280;4093;53.470;9.832;2023-07-31T12:21:04;100274.22;;;21.80;92.47
8101;BME280;4093;53.470;9.832;2023-07-31T12:23:33;100266.03;;;21.35;94.92
8101;BME280;4093;53.470;9.832;2023-07-31T12:26:04;100269.78;;;21.57;94.48
8101;BME280;4093;53.470;9.832;2023-07-31T12:28:35;100269.22;;;21.64;94.08
8101;BME280;4093;53.470;9.832;2023-07-31T12:31:05;100262.44;;;21.36;95.06
8101;BME280;4093;53.470;9.832;2023-07-31T12:33:36;100268.63;;;21.85;94.91
8101;BME280;4093;53.470;9.832;2023-07-31T12:36:08;100256.75;;;21.79;94.10
8101;BME280;4093;53.470;9.832;2023-07-31T12:38:36;100261.00;;;21.93;93.43
8101;BME280;4093;53.470;9.832;2023-07-31T12:41:04;100244.34;;;21.81;93.90
8101;BME280;4093;53.470;9.832;2023-07-31T12:43:33;100243.81;;;21.76;94.53
8101;BME280;4093;53.470;9.832;2023-07-31T12:46:01;100250.03;;;21.99;94.43
8101;BME280;4093;53.470;9.832;2023-07-31T12:48:29;100255.84;;;22.15;93.71
8101;BME280;4093;53.470;9.832;2023-07-31T12:50:59;100247.63;;;21.96;94.03
8101;BME280;4093;53.470;9.832;2023-07-31T12:53:26;100243.59;;;22.27;93.15
8101;BME280;4093;53.470;9.832;2023-07-31T12:55:54;100250.81;;;22.36;92.67
8101;BME280;4093;53.470;9.832;2023-07-31T12:58:22;100234.69;;;22.17;92.87
8101;BME280;4093;53.470;9.832;2023-07-31T13:00:50;100227.75;;;22.16;93.13
8101;BME280;4093;53.470;9.832;2023-07-31T13:03:17;100238.00;;;22.43;91.92
8101;BME280;4093;53.470;9.832;2023-07-31T13:05:45;100233.56;;;22.44;91.44
8101;BME280;4093;53.470;9.832;2023-07-31T13:08:14;100220.53;;;22.42;91.47
8101;BME280;4093;53.470;9.832;2023-07-31T13:10:44;100219.84;;;21.92;93.90
8101;BME280;4093;53.470;9.832;2023-07-31T13:13:11;100216.09;;;21.83;94.63
8101;BME280;4093;53.470;9.832;2023-07-31T13:15:39;100219.94;;;21.90;93.92
8101;BME280;4093;53.470;9.832;2023-07-31T13:18:07;100218.59;;;22.09;92.86
8101;BME280;4093;53.470;9.832;2023-07-31T13:20:35;100230.63;;;22.48;91.53